createdAt,value
2019-03-31T00:00:33.312Z,103.63
2019-03-31T00:03:05.362Z,100.87
2019-03-31T00:05:37.682Z,101.77
2019-03-31T00:08:10.439Z,105.50
2019-03-31T00:10:42.292Z,102.10
2019-03-31T00:13:14.444Z,98.90
2019-03-31T00:15:46.514Z,102.70
2019-03-31T00:18:21.952Z,96.70
2019-03-31T00:20:53.945Z,97.17
2019-03-31T00:23:26.084Z,93.20
2019-03-31T00:25:58.157Z,105.17
2019-03-31T00:28:30.422Z,95.10
2019-03-31T00:31:02.178Z,99.60
2019-03-31T00:33:34.160Z,103.90
2019-03-31T00:36:06.110Z,96.03
2019-03-31T00:38:38.952Z,100.40
2019-03-31T00:41:10.742Z,91.93
2019-03-31T00:43:42.914Z,90.97
2019-03-31T00:46:15.080Z,88.00
2019-03-31T00:48:47.042Z,88.30
2019-03-31T00:51:20.825Z,93.60
2019-03-31T00:53:54.142Z,92.77
2019-03-31T00:56:26.117Z,88.67
2019-03-31T00:58:58.073Z,87.30
2019-03-31T01:01:36.719Z,89.30
2019-03-31T01:04:09.002Z,101.40
2019-03-31T01:06:40.952Z,94.17
2019-03-31T01:09:19.942Z,97.73
2019-03-31T01:11:52.092Z,97.13
2019-03-31T01:14:24.375Z,96.73
2019-03-31T01:16:56.870Z,95.43
2019-03-31T01:19:29.284Z,93.47
2019-03-31T01:22:01.434Z,96.63
2019-03-31T01:24:33.462Z,92.80
2019-03-31T01:27:05.806Z,93.07
2019-03-31T01:29:38.031Z,95.73
2019-03-31T01:32:09.809Z,88.80
2019-03-31T01:34:41.932Z,91.60
2019-03-31T01:37:13.894Z,95.00
2019-03-31T01:39:46.573Z,92.60
2019-03-31T01:42:18.550Z,92.20
2019-03-31T01:44:50.505Z,92.10
2019-03-31T01:47:22.282Z,87.70
2019-03-31T01:49:54.142Z,96.17
2019-03-31T01:52:26.082Z,95.00
2019-03-31T01:54:57.942Z,90.83
2019-03-31T01:57:30.852Z,100.67
2019-03-31T02:00:05.862Z,96.90
2019-03-31T02:02:40.672Z,90.83
2019-03-31T02:05:12.747Z,95.23
2019-03-31T02:07:44.513Z,113.87
2019-03-31T02:10:16.696Z,94.57
2019-03-31T02:12:48.632Z,102.37
2019-03-31T02:15:20.602Z,100.93
2019-03-31T02:17:52.361Z,99.93
2019-03-31T02:20:31.132Z,99.40
2019-03-31T02:23:03.042Z,100.23
2019-03-31T02:25:34.932Z,104.50
2019-03-31T02:28:07.063Z,98.83
2019-03-31T02:30:38.951Z,97.23
2019-03-31T02:33:10.766Z,98.00
2019-03-31T02:35:42.753Z,99.00
2019-03-31T02:38:14.703Z,94.63
2019-03-31T02:40:47.102Z,92.90
2019-03-31T02:43:24.825Z,92.20
2019-03-31T02:45:56.834Z,87.97
2019-03-31T02:48:28.622Z,87.47
2019-03-31T02:54:10.636Z,85.05
2019-03-31T02:56:42.478Z,90.03
2019-03-31T02:59:15.054Z,86.00
2019-03-31T03:01:47.015Z,87.90
2019-03-31T03:04:18.885Z,85.00
2019-03-31T03:06:51.052Z,92.43
2019-03-31T03:09:23.230Z,85.87
2019-03-31T03:11:55.792Z,83.73
2019-03-31T03:14:27.762Z,79.83
2019-03-31T03:16:59.944Z,77.67
2019-03-31T03:19:32.184Z,78.03
2019-03-31T03:22:08.155Z,79.30
2019-03-31T03:24:40.116Z,75.77
2019-03-31T03:27:11.963Z,75.93
2019-03-31T03:29:44.043Z,75.50
2019-03-31T03:32:15.896Z,72.93
2019-03-31T03:34:47.923Z,80.43
2019-03-31T03:37:19.925Z,74.00
2019-03-31T03:39:51.795Z,72.77
2019-03-31T03:42:24.269Z,71.77
2019-03-31T03:44:56.501Z,70.03
2019-03-31T03:47:28.508Z,86.13
2019-03-31T03:50:01.442Z,73.33
2019-03-31T03:52:33.333Z,77.80
2019-03-31T03:55:05.617Z,75.13
2019-03-31T03:57:37.463Z,78.00
2019-03-31T04:00:09.449Z,78.57
2019-03-31T04:02:41.305Z,73.80
2019-03-31T04:05:13.214Z,75.90
2019-03-31T04:07:45.119Z,69.37
2019-03-31T04:10:44.627Z,76.67
2019-03-31T04:13:16.907Z,73.70
2019-03-31T04:15:48.838Z,71.33
2019-03-31T04:18:20.723Z,72.20
2019-03-31T04:20:52.894Z,72.50
2019-03-31T04:23:30.985Z,72.93
2019-03-31T04:26:02.876Z,72.83
2019-03-31T04:28:40.536Z,73.43
2019-03-31T04:31:12.564Z,75.00
2019-03-31T04:33:51.637Z,85.63
2019-03-31T04:36:18.393Z,80.43
2019-03-31T04:38:50.361Z,76.70
2019-03-31T04:41:22.423Z,71.90
2019-03-31T04:44:03.481Z,71.27
2019-03-31T04:46:38.931Z,70.83
2019-03-31T04:49:10.883Z,70.17
2019-03-31T04:51:42.952Z,69.33
2019-03-31T04:54:14.812Z,68.33
2019-03-31T04:56:46.705Z,70.13
2019-03-31T04:59:18.442Z,67.47
2019-03-31T05:01:50.373Z,67.37
2019-03-31T05:07:06.392Z,65.87
2019-03-31T05:09:42.252Z,68.87
2019-03-31T05:12:16.751Z,71.53
2019-03-31T05:14:48.631Z,78.00
2019-03-31T05:17:21.513Z,74.73
2019-03-31T05:19:54.502Z,68.17
2019-03-31T05:22:26.683Z,72.23
2019-03-31T05:25:05.442Z,72.40
2019-03-31T05:27:37.554Z,69.23
2019-03-31T05:30:09.540Z,66.93
2019-03-31T05:32:41.585Z,67.30
2019-03-31T05:35:13.651Z,62.77
2019-03-31T05:37:51.229Z,59.87
2019-03-31T05:40:19.432Z,63.07
2019-03-31T05:42:51.492Z,61.70
2019-03-31T05:45:23.726Z,58.30
2019-03-31T05:47:55.713Z,57.83
2019-03-31T05:50:27.687Z,57.30
2019-03-31T05:52:59.642Z,56.03
2019-03-31T05:55:40.362Z,53.27
2019-03-31T05:58:12.681Z,56.37
2019-03-31T06:00:45.152Z,55.43
2019-03-31T06:03:17.213Z,54.13
2019-03-31T06:05:49.082Z,52.03
2019-03-31T06:08:21.043Z,48.73
2019-03-31T06:10:52.902Z,50.80
2019-03-31T06:13:25.063Z,49.33
2019-03-31T06:15:57.333Z,51.17
2019-03-31T06:18:29.326Z,49.30
2019-03-31T06:21:03.545Z,48.23
2019-03-31T06:23:36.563Z,42.80
2019-03-31T06:26:09.766Z,38.87
2019-03-31T06:28:41.708Z,37.23
2019-03-31T06:31:13.501Z,39.33
2019-03-31T06:33:45.392Z,38.00
2019-03-31T06:36:17.163Z,36.33
2019-03-31T06:38:49.036Z,35.33
2019-03-31T06:41:20.764Z,35.60
2019-03-31T06:43:52.643Z,35.53
2019-03-31T06:46:24.957Z,31.50
2019-03-31T06:48:56.784Z,32.00
2019-03-31T06:51:28.677Z,32.70
2019-03-31T06:54:00.600Z,33.33
2019-03-31T06:56:32.452Z,32.03
2019-03-31T06:59:04.372Z,33.50
2019-03-31T07:01:36.397Z,29.30
2019-03-31T07:04:08.381Z,30.90
2019-03-31T07:06:40.202Z,30.87
2019-03-31T07:09:12.242Z,29.67
2019-03-31T07:11:44.312Z,29.30
2019-03-31T07:14:16.362Z,28.47
2019-03-31T07:16:48.630Z,27.53
2019-03-31T07:19:20.512Z,28.97
2019-03-31T07:21:52.382Z,27.90
2019-03-31T07:24:24.273Z,27.80
2019-03-31T07:26:59.359Z,27.60
2019-03-31T07:29:31.251Z,28.53
2019-03-31T07:32:03.072Z,29.30
2019-03-31T07:34:35.183Z,28.30
2019-03-31T07:37:07.107Z,28.03
2019-03-31T07:39:39.317Z,28.60
2019-03-31T07:42:11.633Z,27.73
2019-03-31T07:44:43.683Z,28.93
2019-03-31T07:47:15.911Z,28.87
2019-03-31T07:49:47.859Z,27.60
2019-03-31T07:52:19.752Z,28.40
2019-03-31T07:54:51.652Z,26.43
2019-03-31T07:57:23.592Z,26.93
2019-03-31T07:59:56.696Z,27.07
2019-03-31T08:02:28.662Z,28.90
2019-03-31T08:05:00.664Z,26.83
2019-03-31T08:07:32.522Z,27.53
2019-03-31T08:10:05.856Z,27.77
2019-03-31T08:12:37.791Z,26.63
2019-03-31T08:15:10.034Z,27.07
2019-03-31T08:17:42.916Z,27.07
2019-03-31T08:20:16.397Z,27.53
2019-03-31T08:22:48.332Z,30.10
2019-03-31T08:25:24.150Z,28.87
2019-03-31T08:27:56.970Z,25.70
2019-03-31T08:30:28.948Z,25.20
2019-03-31T08:33:00.783Z,24.63
2019-03-31T08:35:46.256Z,24.33
2019-03-31T08:38:06.490Z,22.87
2019-03-31T08:40:38.412Z,23.40
2019-03-31T08:43:10.234Z,23.10
2019-03-31T08:45:42.210Z,23.60
2019-03-31T08:48:14.817Z,23.17
2019-03-31T08:50:46.721Z,24.90
2019-03-31T08:53:18.608Z,23.87
2019-03-31T08:55:50.502Z,24.30
2019-03-31T08:58:22.383Z,26.60
2019-03-31T09:00:56.082Z,24.30
2019-03-31T09:03:27.974Z,24.13
2019-03-31T09:06:02.101Z,24.43
2019-03-31T09:08:33.682Z,24.73
2019-03-31T09:11:05.547Z,26.00
2019-03-31T09:13:37.403Z,26.37
2019-03-31T09:16:09.376Z,27.07
2019-03-31T09:18:41.434Z,26.43
2019-03-31T09:21:13.276Z,28.87
2019-03-31T09:23:45.052Z,27.40
2019-03-31T09:26:16.944Z,28.47
2019-03-31T09:32:48.120Z,27.80
2019-03-31T09:35:20.154Z,26.90
2019-03-31T09:37:52.042Z,25.70
2019-03-31T09:40:23.967Z,24.70
2019-03-31T09:42:56.117Z,25.53
2019-03-31T09:45:27.892Z,26.63
2019-03-31T09:47:59.937Z,23.07
2019-03-31T09:50:32.152Z,24.03
2019-03-31T09:53:04.073Z,25.63
2019-03-31T09:55:35.963Z,23.46
2019-03-31T09:58:09.072Z,25.67
2019-03-31T10:00:50.952Z,24.20
2019-03-31T10:03:22.861Z,25.80
2019-03-31T10:05:54.715Z,24.33
2019-03-31T10:08:26.533Z,26.30
2019-03-31T10:10:58.324Z,25.43
2019-03-31T10:13:30.283Z,24.20
2019-03-31T10:16:02.099Z,24.00
2019-03-31T10:18:35.222Z,19.03
2019-03-31T10:21:07.236Z,18.63
2019-03-31T10:23:40.232Z,20.10
2019-03-31T10:26:12.000Z,21.40
2019-03-31T10:28:43.859Z,18.50
2019-03-31T10:31:15.970Z,18.27
2019-03-31T10:33:54.284Z,17.90
2019-03-31T10:36:27.182Z,18.60
2019-03-31T10:38:59.198Z,17.53
2019-03-31T10:41:31.174Z,19.60
2019-03-31T10:44:03.104Z,20.17
2019-03-31T10:46:34.906Z,20.00
2019-03-31T10:49:06.761Z,20.47
2019-03-31T10:51:39.133Z,20.83
2019-03-31T10:54:11.064Z,21.23
2019-03-31T10:56:44.992Z,22.93
2019-03-31T10:59:16.882Z,22.87
2019-03-31T11:01:48.753Z,23.47
2019-03-31T11:04:20.624Z,23.30
2019-03-31T11:06:59.132Z,22.53
2019-03-31T11:09:27.356Z,24.17
2019-03-31T11:11:59.252Z,24.40
2019-03-31T11:14:31.312Z,24.80
2019-03-31T11:17:03.102Z,22.73
2019-03-31T11:19:36.103Z,23.03
2019-03-31T11:22:12.822Z,22.53
2019-03-31T11:24:44.758Z,22.97
2019-03-31T11:27:16.533Z,22.00
2019-03-31T11:29:48.591Z,26.93
2019-03-31T11:32:20.602Z,24.20
2019-03-31T11:34:56.171Z,26.03
2019-03-31T11:37:28.042Z,25.70
2019-03-31T11:40:00.035Z,25.67
2019-03-31T11:42:31.853Z,26.70
2019-03-31T11:45:06.082Z,26.47
2019-03-31T11:47:37.862Z,26.37
2019-03-31T11:50:09.832Z,25.03
2019-03-31T11:52:42.182Z,25.57
2019-03-31T11:55:14.411Z,25.87
2019-03-31T11:57:46.191Z,26.13
2019-03-31T12:00:20.422Z,27.83
2019-03-31T12:02:52.182Z,32.53
2019-03-31T12:05:24.114Z,34.60
2019-03-31T12:07:55.909Z,29.00
2019-03-31T12:10:27.758Z,26.10
2019-03-31T12:12:59.752Z,26.60
2019-03-31T12:15:31.621Z,27.73
2019-03-31T12:18:09.172Z,26.00
2019-03-31T12:20:41.062Z,26.17
2019-03-31T12:23:13.642Z,24.53
2019-03-31T12:25:45.473Z,24.90
2019-03-31T12:28:17.376Z,24.97
2019-03-31T12:30:49.222Z,23.80
2019-03-31T12:33:21.042Z,23.73
2019-03-31T12:35:56.802Z,21.70
2019-03-31T12:38:28.576Z,21.70
2019-03-31T12:41:00.502Z,20.80
2019-03-31T12:43:32.394Z,22.40
2019-03-31T12:46:04.348Z,21.07
2019-03-31T12:48:37.088Z,22.30
2019-03-31T12:51:08.927Z,22.10
2019-03-31T12:53:41.301Z,19.80
2019-03-31T12:56:13.206Z,21.07
2019-03-31T12:58:46.280Z,22.27
2019-03-31T13:01:18.152Z,20.90
2019-03-31T13:03:50.246Z,22.60
2019-03-31T13:06:22.673Z,22.13
2019-03-31T13:08:54.467Z,19.83
2019-03-31T13:11:26.451Z,22.40
2019-03-31T13:13:58.532Z,20.90
2019-03-31T13:16:30.371Z,21.77
2019-03-31T13:19:02.112Z,22.87
2019-03-31T13:21:34.076Z,24.60
2019-03-31T13:24:05.827Z,23.33
2019-03-31T13:26:37.692Z,23.07
2019-03-31T13:29:12.402Z,21.63
2019-03-31T13:31:44.331Z,22.17
2019-03-31T13:34:16.247Z,22.07
2019-03-31T13:36:48.460Z,20.43
2019-03-31T13:39:20.262Z,20.47
2019-03-31T13:41:52.188Z,18.77
2019-03-31T13:44:24.394Z,18.87
2019-03-31T13:46:56.289Z,17.37
2019-03-31T13:49:31.105Z,15.97
2019-03-31T13:52:03.022Z,15.87
2019-03-31T13:54:35.046Z,15.47
2019-03-31T13:57:08.514Z,16.20
2019-03-31T13:59:40.936Z,16.17
2019-03-31T14:02:12.975Z,15.33
2019-03-31T14:04:51.587Z,15.57
2019-03-31T14:07:18.843Z,13.63
2019-03-31T14:09:57.117Z,12.87
2019-03-31T14:12:33.232Z,13.23
2019-03-31T14:15:18.916Z,10.53
2019-03-31T14:17:42.311Z,10.50
2019-03-31T14:20:14.263Z,10.17
2019-03-31T14:22:46.154Z,9.93
2019-03-31T14:25:18.153Z,10.40
2019-03-31T14:27:50.214Z,8.50
2019-03-31T14:30:21.983Z,8.17
2019-03-31T14:32:54.142Z,8.03
2019-03-31T14:35:26.023Z,7.53
2019-03-31T14:37:58.183Z,8.20
2019-03-31T14:40:30.241Z,9.23
2019-03-31T14:43:02.415Z,8.27
2019-03-31T14:45:37.842Z,7.33
2019-03-31T14:48:10.013Z,7.67
2019-03-31T14:50:42.032Z,7.77
2019-03-31T14:53:13.993Z,8.20
2019-03-31T14:55:45.851Z,7.60
2019-03-31T14:58:21.142Z,8.47
2019-03-31T15:00:53.033Z,8.10
2019-03-31T15:03:24.993Z,7.97
2019-03-31T15:05:59.894Z,7.50
2019-03-31T15:08:32.982Z,7.20
2019-03-31T15:11:04.961Z,7.47
2019-03-31T15:13:37.535Z,6.73
2019-03-31T15:16:15.633Z,7.57
2019-03-31T15:18:47.693Z,6.70
2019-03-31T15:21:19.477Z,7.17
2019-03-31T15:23:51.593Z,7.80
2019-03-31T15:26:23.583Z,6.73
2019-03-31T15:28:55.598Z,6.07
2019-03-31T15:31:27.503Z,5.20
2019-03-31T15:33:59.572Z,5.37
2019-03-31T15:36:31.542Z,5.53
2019-03-31T15:39:08.943Z,5.57
2019-03-31T15:41:40.330Z,4.63
2019-03-31T15:44:12.203Z,5.10
2019-03-31T15:46:44.335Z,5.47
2019-03-31T15:49:16.194Z,4.87
2019-03-31T15:51:51.212Z,4.50
2019-03-31T15:54:23.577Z,4.53
2019-03-31T15:56:56.052Z,5.67
2019-03-31T15:59:28.716Z,5.17
2019-03-31T16:02:06.514Z,5.60
2019-03-31T16:04:38.488Z,4.87
2019-03-31T16:07:10.456Z,4.30
2019-03-31T16:09:42.516Z,4.90
2019-03-31T16:12:14.683Z,4.60
2019-03-31T16:14:53.511Z,4.53
2019-03-31T16:17:31.998Z,4.60
2019-03-31T16:20:04.182Z,4.40
2019-03-31T16:22:37.257Z,4.30
2019-03-31T16:25:23.126Z,4.40
2019-03-31T16:28:04.455Z,4.67
2019-03-31T16:30:37.145Z,4.33
2019-03-31T16:33:09.013Z,4.60
2019-03-31T16:35:41.056Z,4.30
2019-03-31T16:38:13.013Z,4.80
2019-03-31T16:40:45.195Z,4.50
2019-03-31T16:43:20.430Z,4.97
2019-03-31T16:45:52.381Z,4.17
2019-03-31T16:48:24.649Z,3.90
2019-03-31T16:50:56.519Z,4.03
2019-03-31T16:53:28.273Z,4.37
2019-03-31T16:56:00.249Z,5.60
2019-03-31T16:58:53.899Z,4.90
2019-03-31T17:01:25.878Z,3.90
2019-03-31T17:03:57.728Z,4.03
2019-03-31T17:06:33.497Z,4.27
2019-03-31T17:09:06.380Z,4.73
2019-03-31T17:11:38.973Z,4.57
2019-03-31T17:14:11.002Z,4.63
2019-03-31T17:16:46.861Z,4.40
2019-03-31T17:19:19.130Z,4.67
2019-03-31T17:21:51.518Z,5.17
2019-03-31T17:24:23.462Z,5.30
2019-03-31T17:26:55.530Z,5.77
2019-03-31T17:29:27.489Z,5.97
2019-03-31T17:31:59.452Z,5.37
2019-03-31T17:34:31.626Z,7.77
2019-03-31T17:37:04.823Z,6.73
2019-03-31T17:39:36.983Z,5.97
2019-03-31T17:42:09.142Z,6.03
2019-03-31T17:44:40.963Z,5.87
2019-03-31T17:47:13.073Z,5.97
2019-03-31T17:49:45.378Z,6.00
2019-03-31T17:52:17.411Z,6.30
2019-03-31T17:54:51.423Z,6.07
2019-03-31T17:57:23.483Z,5.90
2019-03-31T17:59:55.543Z,6.07
2019-03-31T18:02:27.604Z,6.30
2019-03-31T18:04:59.489Z,5.80
2019-03-31T18:07:31.334Z,5.83
2019-03-31T18:10:19.604Z,8.77
2019-03-31T18:12:39.670Z,8.67
2019-03-31T18:15:12.826Z,12.97
2019-03-31T18:17:48.243Z,11.20
2019-03-31T18:20:21.412Z,12.30
2019-03-31T18:22:53.290Z,12.40
2019-03-31T18:25:25.297Z,11.83
2019-03-31T18:27:57.252Z,12.80
2019-03-31T18:30:29.014Z,11.30
2019-03-31T18:33:00.882Z,11.93
2019-03-31T18:35:32.743Z,12.30
2019-03-31T18:38:04.730Z,12.40
2019-03-31T18:40:51.854Z,11.43
2019-03-31T18:43:23.903Z,12.63
2019-03-31T18:45:55.752Z,13.40
2019-03-31T18:48:28.222Z,12.67
2019-03-31T18:51:00.565Z,10.30
2019-03-31T18:53:34.293Z,9.87
2019-03-31T18:56:25.003Z,9.03
2019-03-31T18:59:15.603Z,7.83
2019-03-31T19:02:01.493Z,7.92
2019-03-31T19:04:47.401Z,7.40
2019-03-31T19:07:21.032Z,7.63
2019-03-31T19:10:00.841Z,6.27
2019-03-31T19:12:51.514Z,6.73
2019-03-31T19:15:41.723Z,6.40
2019-03-31T19:18:36.320Z,7.20
2019-03-31T19:21:13.835Z,6.90
2019-03-31T19:23:47.442Z,9.83
2019-03-31T19:26:48.284Z,10.53
2019-03-31T19:29:22.472Z,11.37
2019-03-31T19:32:13.063Z,14.17
2019-03-31T19:35:02.512Z,6.97
2019-03-31T19:37:53.333Z,6.50
2019-03-31T19:43:15.802Z,5.67
2019-03-31T19:46:05.680Z,7.20
2019-03-31T19:48:56.425Z,5.50
2019-03-31T19:51:43.084Z,4.87
2019-03-31T19:54:19.811Z,4.97
2019-03-31T19:56:53.563Z,5.13
2019-03-31T19:59:47.042Z,5.07
2019-03-31T20:02:29.966Z,5.57
2019-03-31T20:05:20.562Z,10.50
2019-03-31T20:07:54.372Z,5.83
2019-03-31T20:10:43.730Z,7.60
2019-03-31T20:13:35.777Z,8.37
2019-03-31T20:16:25.034Z,5.30
2019-03-31T20:19:20.855Z,4.40
2019-03-31T20:22:03.974Z,5.40
2019-03-31T20:24:46.932Z,3.43
2019-03-31T20:27:37.522Z,3.67
2019-03-31T20:30:11.303Z,3.27
2019-03-31T20:32:45.162Z,4.73
2019-03-31T20:35:35.948Z,2.77
2019-03-31T20:41:01.472Z,2.90
2019-03-31T20:43:38.627Z,3.43
2019-03-31T20:46:10.472Z,3.70
2019-03-31T20:48:42.322Z,4.23
2019-03-31T20:51:14.106Z,4.17
2019-03-31T20:53:47.272Z,3.87
2019-03-31T20:56:19.052Z,4.07
2019-03-31T20:58:51.002Z,5.73
2019-03-31T21:01:22.809Z,8.03
2019-03-31T21:03:54.732Z,13.97
2019-03-31T21:06:26.602Z,13.77
2019-03-31T21:08:58.602Z,23.07
2019-03-31T21:11:30.454Z,19.00
2019-03-31T21:14:02.382Z,14.30
2019-03-31T21:16:34.194Z,11.73
2019-03-31T21:19:07.372Z,7.87
2019-03-31T21:21:39.251Z,7.93
2019-03-31T21:24:11.604Z,7.13
2019-03-31T21:26:43.662Z,7.20
2019-03-31T21:29:15.645Z,6.67
2019-03-31T21:31:47.584Z,5.60
2019-03-31T21:34:19.602Z,4.73
2019-03-31T21:36:51.545Z,3.47
2019-03-31T21:39:23.612Z,3.77
2019-03-31T21:41:55.440Z,4.47
2019-03-31T21:44:27.712Z,4.57
2019-03-31T21:46:59.512Z,3.87
2019-03-31T21:49:31.463Z,3.87
2019-03-31T21:52:03.285Z,3.30
2019-03-31T21:54:35.742Z,3.70
2019-03-31T21:57:07.562Z,3.33
2019-03-31T21:59:39.484Z,3.20
2019-03-31T22:02:11.382Z,2.70
2019-03-31T22:04:43.442Z,3.83
2019-03-31T22:07:15.282Z,4.27
2019-03-31T22:09:47.182Z,3.93
2019-03-31T22:12:19.043Z,4.53
2019-03-31T22:14:51.085Z,4.53
2019-03-31T22:17:22.872Z,4.30
2019-03-31T22:20:01.232Z,4.73
2019-03-31T22:22:32.987Z,4.50
2019-03-31T22:25:05.952Z,5.00
2019-03-31T22:27:37.756Z,4.57
2019-03-31T22:30:10.750Z,5.40
2019-03-31T22:32:42.553Z,4.87
2019-03-31T22:35:14.552Z,5.00
2019-03-31T22:37:46.542Z,5.40
2019-03-31T22:40:18.427Z,5.07
2019-03-31T22:42:50.223Z,5.30
2019-03-31T22:45:22.094Z,4.70
2019-03-31T22:47:53.841Z,4.80
2019-03-31T22:50:26.852Z,5.30
2019-03-31T22:52:58.702Z,5.03
2019-03-31T22:55:31.372Z,5.80
2019-03-31T22:58:03.174Z,5.30
2019-03-31T23:00:35.192Z,6.00
2019-03-31T23:03:08.902Z,6.03
2019-03-31T23:05:40.894Z,5.53
2019-03-31T23:08:12.692Z,6.07
2019-03-31T23:10:44.652Z,5.80
2019-03-31T23:13:16.433Z,6.87
2019-03-31T23:15:48.398Z,6.00
2019-03-31T23:18:20.192Z,6.70
2019-03-31T23:20:53.332Z,5.50
2019-03-31T23:23:25.122Z,6.90
2019-03-31T23:25:57.434Z,6.60
2019-03-31T23:28:29.222Z,8.10
2019-03-31T23:31:03.637Z,7.33
2019-03-31T23:33:34.732Z,7.77
2019-03-31T23:36:06.613Z,8.30
2019-03-31T23:38:38.403Z,7.20
2019-03-31T23:41:10.262Z,8.47
2019-03-31T23:43:42.052Z,8.80
2019-03-31T23:46:13.962Z,8.87
2019-03-31T23:48:45.742Z,9.57
2019-03-31T23:51:18.757Z,9.10
2019-03-31T23:53:50.680Z,9.53
2019-03-31T23:56:22.973Z,10.20
2019-03-31T23:58:54.812Z,9.43
